createdAt,value
2023-04-05T00:00:27.613Z,0.80
2023-04-05T00:02:58.028Z,0.80
2023-04-05T00:05:30.698Z,0.80
2023-04-05T00:08:00.612Z,0.80
2023-04-05T00:10:29.033Z,0.80
2023-04-05T00:12:55.882Z,0.80
2023-04-05T00:15:23.406Z,0.70
2023-04-05T00:17:50.516Z,0.70
2023-04-05T00:20:17.295Z,0.80
2023-04-05T00:22:44.737Z,0.70
2023-04-05T00:25:11.896Z,0.70
2023-04-05T00:27:42.822Z,0.70
2023-04-05T00:30:09.947Z,0.60
2023-04-05T00:32:36.782Z,0.60
2023-04-05T00:35:04.195Z,0.60
2023-04-05T00:37:30.905Z,0.60
2023-04-05T00:39:57.621Z,0.40
2023-04-05T00:42:24.316Z,0.40
2023-04-05T00:44:51.246Z,0.40
2023-04-05T00:47:18.143Z,0.30
2023-04-05T00:49:45.605Z,0.30
2023-04-05T00:52:13.032Z,0.20
2023-04-05T00:54:39.819Z,0.20
2023-04-05T00:57:07.344Z,0.10
2023-04-05T00:59:34.144Z,0.10
2023-04-05T01:02:34.370Z,0.10
2023-04-05T01:05:16.971Z,0.00
2023-04-05T01:08:09.730Z,-0.10
2023-04-05T01:10:44.171Z,-0.10
2023-04-05T01:13:11.332Z,-0.30
2023-04-05T01:15:38.474Z,-0.30
2023-04-05T01:18:05.893Z,-0.40
2023-04-05T01:20:45.709Z,-0.60
2023-04-05T01:23:59.748Z,-0.60
2023-04-05T01:27:02.168Z,-0.70
2023-04-05T01:30:31.912Z,-0.70
2023-04-05T01:33:17.045Z,-0.70
2023-04-05T01:35:55.130Z,-0.80
2023-04-05T01:38:28.125Z,-0.80
2023-04-05T01:40:55.285Z,-0.80
2023-04-05T01:43:22.117Z,-0.90
2023-04-05T01:45:49.138Z,-0.90
2023-04-05T01:48:16.264Z,-0.90
2023-04-05T01:50:43.512Z,-1.00
2023-04-05T01:53:10.778Z,-1.00
2023-04-05T01:55:37.786Z,-1.10
2023-04-05T01:58:04.605Z,-1.10
2023-04-05T02:00:31.419Z,-1.10
2023-04-05T02:02:58.280Z,-1.20
2023-04-05T02:05:25.142Z,-1.20
2023-04-05T02:07:52.053Z,-1.20
2023-04-05T02:10:20.277Z,-1.20
2023-04-05T02:12:47.034Z,-1.20
2023-04-05T02:15:13.918Z,-1.20
2023-04-05T02:17:45.906Z,-1.30
2023-04-05T02:20:14.493Z,-1.30
2023-04-05T02:22:45.181Z,-1.40
2023-04-05T02:25:12.872Z,-1.40
2023-04-05T02:27:39.717Z,-1.50
2023-04-05T02:30:07.496Z,-1.50
2023-04-05T02:32:34.409Z,-1.60
2023-04-05T02:35:01.446Z,-1.60
2023-04-05T02:37:28.406Z,-1.60
2023-04-05T02:39:55.209Z,-1.70
2023-04-05T02:42:22.072Z,-1.70
2023-04-05T02:44:49.222Z,-1.70
2023-04-05T02:47:21.237Z,-1.80
2023-04-05T02:49:51.232Z,-1.70
2023-04-05T02:52:18.030Z,-1.80
2023-04-05T02:54:46.610Z,-1.80
2023-04-05T02:57:13.776Z,-1.80
2023-04-05T02:59:40.724Z,-1.90
2023-04-05T03:02:09.520Z,-1.90
2023-04-05T03:04:36.859Z,-1.90
2023-04-05T03:07:04.783Z,-2.00
2023-04-05T03:09:34.750Z,-2.00
2023-04-05T03:12:05.285Z,-2.00
2023-04-05T03:14:33.024Z,-2.10
2023-04-05T03:16:59.913Z,-2.10
2023-04-05T03:19:27.031Z,-2.20
2023-04-05T03:21:53.879Z,-2.20
2023-04-05T03:24:21.247Z,-2.20
2023-04-05T03:26:49.089Z,-2.20
2023-04-05T03:29:17.212Z,-2.20
2023-04-05T03:31:45.788Z,-2.20
2023-04-05T03:34:12.599Z,-2.30
2023-04-05T03:36:42.373Z,-2.30
2023-04-05T03:39:11.363Z,-2.30
2023-04-05T03:41:41.563Z,-2.40
2023-04-05T03:44:09.469Z,-2.40
2023-04-05T03:46:37.947Z,-2.50
2023-04-05T03:49:06.178Z,-2.50
2023-04-05T03:51:33.395Z,-2.60
2023-04-05T03:54:00.324Z,-2.60
2023-04-05T03:56:27.212Z,-2.60
2023-04-05T03:58:54.170Z,-2.70
2023-04-05T04:01:21.402Z,-2.70
2023-04-05T04:03:48.146Z,-2.70
2023-04-05T04:06:17.141Z,-2.70
2023-04-05T04:08:45.912Z,-2.70
2023-04-05T04:11:12.689Z,-2.70
2023-04-05T04:13:39.441Z,-2.70
2023-04-05T04:16:06.365Z,-2.70
2023-04-05T04:18:33.419Z,-2.80
2023-04-05T04:21:06.706Z,-2.80
2023-04-05T04:23:34.537Z,-2.80
2023-04-05T04:26:01.673Z,-2.90
2023-04-05T04:28:29.809Z,-2.90
2023-04-05T04:30:56.523Z,-2.90
2023-04-05T04:33:24.014Z,-2.90
2023-04-05T04:35:54.578Z,-2.90
2023-04-05T04:38:21.586Z,-2.90
2023-04-05T04:40:50.733Z,-2.90
2023-04-05T04:43:17.629Z,-2.90
2023-04-05T04:45:48.567Z,-3.00
2023-04-05T04:48:16.693Z,-3.00
2023-04-05T04:50:45.333Z,-3.00
2023-04-05T04:53:13.630Z,-3.00
2023-04-05T04:55:43.487Z,-3.00
2023-04-05T04:58:12.760Z,-3.00
2023-04-05T05:00:44.324Z,-3.00
2023-04-05T05:03:12.424Z,-3.00
2023-04-05T05:05:47.178Z,-3.00
2023-04-05T05:08:14.271Z,-3.00
2023-04-05T05:10:41.199Z,-3.00
2023-04-05T05:13:08.464Z,-3.00
2023-04-05T05:15:35.288Z,-3.00
2023-04-05T05:18:03.342Z,-3.00
2023-04-05T05:20:30.272Z,-3.00
2023-04-05T05:22:59.047Z,-3.00
2023-04-05T05:25:26.004Z,-3.00
2023-04-05T05:27:52.852Z,-2.90
2023-04-05T05:30:20.933Z,-2.90
2023-04-05T05:32:48.377Z,-2.80
2023-04-05T05:35:15.278Z,-2.70
2023-04-05T05:37:42.011Z,-2.70
2023-04-05T05:40:09.970Z,-2.70
2023-04-05T05:42:36.745Z,-2.70
2023-04-05T05:45:05.999Z,-2.60
2023-04-05T05:47:33.003Z,-2.60
2023-04-05T05:49:59.819Z,-2.50
2023-04-05T05:52:26.708Z,-2.50
2023-04-05T05:54:53.429Z,-2.30
2023-04-05T05:57:20.311Z,-2.20
2023-04-05T05:59:47.094Z,-2.10
2023-04-05T06:02:14.285Z,-2.10
2023-04-05T06:04:41.805Z,-2.00
2023-04-05T06:07:08.655Z,-1.90
2023-04-05T06:09:35.595Z,-1.90
2023-04-05T06:12:02.820Z,-1.80
2023-04-05T06:14:32.210Z,-1.70
2023-04-05T06:16:59.043Z,-1.60
2023-04-05T06:19:25.761Z,-1.50
2023-04-05T06:21:52.640Z,-1.40
2023-04-05T06:24:22.464Z,-1.20
2023-04-05T06:26:51.785Z,-1.10
2023-04-05T06:29:18.527Z,-0.90
2023-04-05T06:31:46.890Z,-0.80
2023-04-05T06:34:13.731Z,-0.60
2023-04-05T06:36:41.479Z,-0.50
2023-04-05T06:39:08.559Z,-0.40
2023-04-05T06:41:35.288Z,-0.30
2023-04-05T06:44:02.050Z,-0.20
2023-04-05T06:46:29.080Z,-0.10
2023-04-05T06:48:55.950Z,0.10
2023-04-05T06:51:22.711Z,0.20
2023-04-05T06:53:49.455Z,0.40
2023-04-05T06:56:16.474Z,0.60
2023-04-05T06:58:44.016Z,0.70
2023-04-05T07:01:11.238Z,0.80
2023-04-05T07:03:38.028Z,1.00
2023-04-05T07:06:05.057Z,1.20
2023-04-05T07:08:33.035Z,1.30
2023-04-05T07:10:59.852Z,1.40
2023-04-05T07:13:26.645Z,1.60
2023-04-05T07:16:00.774Z,1.60
2023-04-05T07:18:28.167Z,1.70
2023-04-05T07:21:01.850Z,1.80
2023-04-05T07:23:29.351Z,2.00
2023-04-05T07:26:05.548Z,2.20
2023-04-05T07:28:35.226Z,2.50
2023-04-05T07:31:03.811Z,2.80
2023-04-05T07:33:30.782Z,3.00
2023-04-05T07:35:57.934Z,3.10
2023-04-05T07:38:25.709Z,3.20
2023-04-05T07:40:52.583Z,3.30
2023-04-05T07:43:19.647Z,3.30
2023-04-05T07:45:46.433Z,3.50
2023-04-05T07:48:13.206Z,3.60
2023-04-05T07:50:41.006Z,3.70
2023-04-05T07:53:08.211Z,3.70
2023-04-05T07:55:38.567Z,3.80
2023-04-05T07:58:05.446Z,3.90
2023-04-05T08:00:32.287Z,4.00
2023-04-05T08:03:01.825Z,4.10
2023-04-05T08:05:29.165Z,4.30
2023-04-05T08:07:57.984Z,4.50
2023-04-05T08:10:25.573Z,4.70
2023-04-05T08:12:53.039Z,4.90
2023-04-05T08:15:19.821Z,5.00
2023-04-05T08:17:46.728Z,5.10
2023-04-05T08:20:13.529Z,5.30
2023-04-05T08:22:40.301Z,5.40
2023-04-05T08:25:08.083Z,5.50
2023-04-05T08:27:34.982Z,5.60
2023-04-05T08:30:01.872Z,5.60
2023-04-05T08:32:28.631Z,5.70
2023-04-05T08:34:55.446Z,5.90
2023-04-05T08:37:22.264Z,6.10
2023-04-05T08:39:48.980Z,6.00
2023-04-05T08:42:19.127Z,6.00
2023-04-05T08:44:51.431Z,6.10
2023-04-05T08:47:20.607Z,6.30
2023-04-05T08:49:47.542Z,6.50
2023-04-05T08:52:14.362Z,6.60
2023-04-05T08:54:41.575Z,6.70
2023-04-05T08:57:10.002Z,6.60
2023-04-05T08:59:40.981Z,6.60
2023-04-05T09:02:19.175Z,6.80
2023-04-05T09:04:48.533Z,7.00
2023-04-05T09:07:15.432Z,7.20
2023-04-05T09:09:48.490Z,7.40
2023-04-05T09:12:15.700Z,7.40
2023-04-05T09:14:43.635Z,7.40
2023-04-05T09:17:11.194Z,7.40
2023-04-05T09:19:38.025Z,7.40
2023-04-05T09:22:07.562Z,7.30
2023-04-05T09:24:41.864Z,7.20
2023-04-05T09:27:19.662Z,7.20
2023-04-05T09:29:49.000Z,7.20
2023-04-05T09:32:21.340Z,7.10
2023-04-05T09:34:49.886Z,7.00
2023-04-05T09:37:20.142Z,7.00
2023-04-05T09:39:50.578Z,7.60
2023-04-05T09:42:22.545Z,8.00
2023-04-05T09:45:05.081Z,8.10
2023-04-05T09:47:36.895Z,8.10
2023-04-05T09:50:13.829Z,7.90
2023-04-05T09:52:40.763Z,7.60
2023-04-05T09:55:08.690Z,7.30
2023-04-05T09:57:38.354Z,7.20
2023-04-05T10:00:09.956Z,7.20
2023-04-05T10:02:39.337Z,7.40
2023-04-05T10:05:11.547Z,7.90
2023-04-05T10:07:45.636Z,8.50
2023-04-05T10:10:13.591Z,8.90
2023-04-05T10:12:41.876Z,8.90
2023-04-05T10:15:11.095Z,8.70
2023-04-05T10:17:49.153Z,8.40
2023-04-05T10:20:24.697Z,8.20
2023-04-05T10:23:10.012Z,8.00
2023-04-05T10:25:53.223Z,7.80
2023-04-05T10:28:35.503Z,7.60
2023-04-05T10:31:45.711Z,7.30
2023-04-05T10:34:43.086Z,7.20
2023-04-05T10:37:35.955Z,7.60
2023-04-05T10:40:08.090Z,8.40
2023-04-05T10:42:43.991Z,9.00
2023-04-05T10:45:15.518Z,9.50
2023-04-05T10:47:55.152Z,10.00
2023-04-05T10:50:26.250Z,10.20
2023-04-05T10:52:53.574Z,10.10
2023-04-05T10:55:21.771Z,9.60
2023-04-05T10:57:50.521Z,9.20
2023-04-05T11:00:18.953Z,9.00
2023-04-05T11:02:47.234Z,8.70
2023-04-05T11:05:40.541Z,8.50
2023-04-05T11:08:11.497Z,8.10
2023-04-05T11:10:39.786Z,8.00
2023-04-05T11:13:08.723Z,8.00
2023-04-05T11:15:36.941Z,8.10
2023-04-05T11:18:18.712Z,8.60
2023-04-05T11:21:06.231Z,9.30
2023-04-05T11:23:39.708Z,9.60
2023-04-05T11:26:06.884Z,10.00
2023-04-05T11:28:41.872Z,10.30
2023-04-05T11:31:19.786Z,10.50
2023-04-05T11:34:00.045Z,10.80
2023-04-05T11:36:45.853Z,10.80
2023-04-05T11:39:18.446Z,10.90
2023-04-05T11:42:17.798Z,10.90
2023-04-05T11:44:51.366Z,11.10
2023-04-05T11:47:21.594Z,11.10
2023-04-05T11:49:52.022Z,11.10
2023-04-05T11:52:21.682Z,11.30
2023-04-05T11:54:49.640Z,11.60
2023-04-05T11:57:22.655Z,11.50
2023-04-05T11:59:53.655Z,11.50
2023-04-05T12:02:22.077Z,11.60
2023-04-05T12:04:57.449Z,11.90
2023-04-05T12:07:32.805Z,12.00
2023-04-05T12:10:16.559Z,12.00
2023-04-05T12:12:45.317Z,12.00
2023-04-05T12:15:37.441Z,11.60
2023-04-05T12:18:04.704Z,11.80
2023-04-05T12:20:33.212Z,12.20
2023-04-05T12:23:00.256Z,12.60
2023-04-05T12:25:27.430Z,12.90
2023-04-05T12:27:54.222Z,13.10
2023-04-05T12:30:24.078Z,13.30
2023-04-05T12:32:53.654Z,13.10
2023-04-05T12:35:34.818Z,12.50
2023-04-05T12:38:03.448Z,12.00
2023-04-05T12:40:30.943Z,11.50
2023-04-05T12:43:09.062Z,11.20
2023-04-05T12:45:43.864Z,10.80
2023-04-05T12:48:15.991Z,10.70
2023-04-05T12:50:48.562Z,10.70
2023-04-05T12:53:25.217Z,10.70
2023-04-05T12:55:54.872Z,10.70
2023-04-05T12:58:32.519Z,10.90
2023-04-05T13:00:59.368Z,11.10
2023-04-05T13:03:27.715Z,11.10
2023-04-05T13:05:54.567Z,11.20
2023-04-05T13:08:21.540Z,11.40
2023-04-05T13:10:50.147Z,12.00
2023-04-05T13:13:18.167Z,12.60
2023-04-05T13:15:45.786Z,13.30
2023-04-05T13:18:14.872Z,13.50
2023-04-05T13:20:45.563Z,13.50
2023-04-05T13:23:13.046Z,13.70
2023-04-05T13:25:47.127Z,13.80
2023-04-05T13:28:14.623Z,13.70
2023-04-05T13:30:41.674Z,13.70
2023-04-05T13:33:08.539Z,13.60
2023-04-05T13:35:35.657Z,13.50
2023-04-05T13:38:04.493Z,14.00
2023-04-05T13:40:32.610Z,14.10
2023-04-05T13:42:59.572Z,14.00
2023-04-05T13:45:27.609Z,14.20
2023-04-05T13:47:54.663Z,14.20
2023-04-05T13:50:21.417Z,14.00
2023-04-05T13:52:48.321Z,14.00
2023-04-05T13:55:15.446Z,14.10
2023-04-05T13:57:42.283Z,14.40
2023-04-05T14:00:10.357Z,14.70
2023-04-05T14:02:37.596Z,15.00
2023-04-05T14:05:05.903Z,15.20
2023-04-05T14:07:33.312Z,15.30
2023-04-05T14:10:00.291Z,15.00
2023-04-05T14:12:27.131Z,14.80
2023-04-05T14:14:53.879Z,14.60
2023-04-05T14:17:20.711Z,15.20
2023-04-05T14:19:47.542Z,15.00
2023-04-05T14:22:14.349Z,14.60
2023-04-05T14:24:41.102Z,14.30
2023-04-05T14:27:07.879Z,13.70
2023-04-05T14:29:34.658Z,13.30
2023-04-05T14:32:01.524Z,12.90
2023-04-05T14:34:28.349Z,12.60
2023-04-05T14:36:58.196Z,12.50
2023-04-05T14:39:25.162Z,12.90
2023-04-05T14:41:52.993Z,12.80
2023-04-05T14:44:19.942Z,12.60
2023-04-05T14:46:47.449Z,12.30
2023-04-05T14:49:15.320Z,12.30
2023-04-05T14:51:42.124Z,12.50
2023-04-05T14:54:08.946Z,12.70
2023-04-05T14:56:35.758Z,13.00
2023-04-05T14:59:02.612Z,13.90
2023-04-05T15:01:29.969Z,14.60
2023-04-05T15:03:56.839Z,15.00
2023-04-05T15:06:23.622Z,15.40
2023-04-05T15:08:51.275Z,16.10
2023-04-05T15:11:18.094Z,16.20
2023-04-05T15:13:44.847Z,16.40
2023-04-05T15:16:11.680Z,16.40
2023-04-05T15:18:38.782Z,16.90
2023-04-05T15:21:07.325Z,17.30
2023-04-05T15:23:34.267Z,18.00
2023-04-05T15:26:01.012Z,18.50
2023-04-05T15:28:27.775Z,18.90
2023-04-05T15:30:54.609Z,19.10
2023-04-05T15:33:21.401Z,19.50
2023-04-05T15:35:48.213Z,19.70
2023-04-05T15:38:14.971Z,20.00
2023-04-05T15:40:41.845Z,20.50
2023-04-05T15:43:09.772Z,21.00
2023-04-05T15:45:36.664Z,20.90
2023-04-05T15:48:03.613Z,20.20
2023-04-05T15:50:30.660Z,19.00
2023-04-05T15:52:57.694Z,18.10
2023-04-05T15:55:24.445Z,17.40
2023-04-05T15:57:54.499Z,17.10
2023-04-05T16:00:22.581Z,16.80
2023-04-05T16:02:49.563Z,16.40
2023-04-05T16:05:16.725Z,15.10
2023-04-05T16:07:44.609Z,14.40
2023-04-05T16:10:11.984Z,14.20
2023-04-05T16:12:38.941Z,14.10
2023-04-05T16:15:06.506Z,13.80
2023-04-05T16:17:33.432Z,13.30
2023-04-05T16:20:00.278Z,12.70
2023-04-05T16:22:27.101Z,12.20
2023-04-05T16:24:53.959Z,12.00
2023-04-05T16:27:20.703Z,12.20
2023-04-05T16:29:47.805Z,12.70
2023-04-05T16:32:14.785Z,13.10
2023-04-05T16:34:42.421Z,13.40
2023-04-05T16:37:09.234Z,13.40
2023-04-05T16:39:36.121Z,13.60
2023-04-05T16:42:03.107Z,13.80
2023-04-05T16:44:32.120Z,13.90
2023-04-05T16:46:59.230Z,13.90
2023-04-05T16:49:26.003Z,13.90
2023-04-05T16:51:53.314Z,13.70
2023-04-05T16:54:21.330Z,13.60
2023-04-05T16:56:48.161Z,13.50
2023-04-05T16:59:15.015Z,13.10
2023-04-05T17:01:41.922Z,12.70
2023-04-05T17:04:08.744Z,12.50
2023-04-05T17:06:35.523Z,12.30
2023-04-05T17:09:03.371Z,12.00
2023-04-05T17:11:30.583Z,11.60
2023-04-05T17:13:59.254Z,11.10
2023-04-05T17:16:26.526Z,10.70
2023-04-05T17:18:53.428Z,10.30
2023-04-05T17:21:20.348Z,9.90
2023-04-05T17:23:47.279Z,9.70
2023-04-05T17:26:14.087Z,9.40
2023-04-05T17:28:40.956Z,9.20
2023-04-05T17:31:07.922Z,9.00
2023-04-05T17:33:34.891Z,8.90
2023-04-05T17:36:01.933Z,8.80
2023-04-05T17:38:29.442Z,8.70
2023-04-05T17:40:57.630Z,8.60
2023-04-05T17:43:24.565Z,8.50
2023-04-05T17:45:51.779Z,8.40
2023-04-05T17:48:19.033Z,8.30
2023-04-05T17:50:46.432Z,8.20
2023-04-05T17:53:15.921Z,8.20
2023-04-05T17:55:43.411Z,8.10
2023-04-05T17:58:10.584Z,8.00
2023-04-05T18:00:37.484Z,8.00
2023-04-05T18:03:08.342Z,7.80
2023-04-05T18:05:35.519Z,7.70
2023-04-05T18:08:02.287Z,7.60
2023-04-05T18:10:29.133Z,7.40
2023-04-05T18:12:56.302Z,7.40
2023-04-05T18:15:23.310Z,7.30
2023-04-05T18:17:50.140Z,7.20
2023-04-05T18:20:17.092Z,7.10
2023-04-05T18:22:43.967Z,7.00
2023-04-05T18:25:11.764Z,7.00
2023-04-05T18:27:39.623Z,6.80
2023-04-05T18:30:07.399Z,6.70
2023-04-05T18:32:34.247Z,6.60
2023-04-05T18:35:01.071Z,6.50
2023-04-05T18:37:27.927Z,6.40
2023-04-05T18:39:54.692Z,6.20
2023-04-05T18:42:21.606Z,6.10
2023-04-05T18:44:49.169Z,6.00
2023-04-05T18:47:16.094Z,5.90
2023-04-05T18:49:42.892Z,5.80
2023-04-05T18:52:10.331Z,5.70
2023-04-05T18:54:38.602Z,5.60
2023-04-05T18:57:07.135Z,5.50
2023-04-05T18:59:33.885Z,5.50
2023-04-05T19:02:00.967Z,5.40
2023-04-05T19:04:27.825Z,5.30
2023-04-05T19:06:55.198Z,5.10
2023-04-05T19:09:22.228Z,5.00
2023-04-05T19:11:49.204Z,4.90
2023-04-05T19:14:16.565Z,4.80
2023-04-05T19:16:43.309Z,4.70
2023-04-05T19:19:10.262Z,4.50
2023-04-05T19:21:37.188Z,4.40
2023-04-05T19:24:04.338Z,4.30
2023-04-05T19:26:32.157Z,4.20
2023-04-05T19:28:59.037Z,4.10
2023-04-05T19:31:26.418Z,4.00
2023-04-05T19:33:53.352Z,3.90
2023-04-05T19:36:20.101Z,3.90
2023-04-05T19:38:46.966Z,3.80
2023-04-05T19:41:13.727Z,3.80
2023-04-05T19:43:41.162Z,3.80
2023-04-05T19:46:12.194Z,3.70
2023-04-05T19:48:41.848Z,3.70
2023-04-05T19:51:11.720Z,3.70
2023-04-05T19:53:49.667Z,3.60
2023-04-05T19:56:31.108Z,3.50
2023-04-05T19:59:08.494Z,3.40
2023-04-05T20:01:39.166Z,3.40
2023-04-05T20:04:15.543Z,3.30
2023-04-05T20:06:51.223Z,3.20
2023-04-05T20:09:20.065Z,3.00
2023-04-05T20:12:08.295Z,2.90
2023-04-05T20:14:45.633Z,2.80
2023-04-05T20:17:14.364Z,2.70
2023-04-05T20:19:56.714Z,2.60
2023-04-05T20:22:24.341Z,2.60
2023-04-05T20:24:51.980Z,2.60
2023-04-05T20:27:18.780Z,2.50
2023-04-05T20:29:46.048Z,2.50
2023-04-05T20:32:13.943Z,2.50
2023-04-05T20:34:43.677Z,2.40
2023-04-05T20:37:12.914Z,2.30
2023-04-05T20:39:39.728Z,2.30
2023-04-05T20:42:07.517Z,2.20
2023-04-05T20:44:34.259Z,2.10
2023-04-05T20:47:01.257Z,2.10
2023-04-05T20:49:28.906Z,2.00
2023-04-05T20:51:57.113Z,2.00
2023-04-05T20:54:24.254Z,1.90
2023-04-05T20:56:51.173Z,1.90
2023-04-05T20:59:17.991Z,1.80
2023-04-05T21:01:47.010Z,1.80
2023-04-05T21:04:14.429Z,1.80
2023-04-05T21:06:42.150Z,1.80
2023-04-05T21:09:09.161Z,1.80
2023-04-05T21:11:36.500Z,1.80
2023-04-05T21:14:03.282Z,1.70
2023-04-05T21:16:30.390Z,1.60
2023-04-05T21:18:57.306Z,1.60
2023-04-05T21:21:24.095Z,1.60
2023-04-05T21:23:50.952Z,1.50
2023-04-05T21:26:17.750Z,1.40
2023-04-05T21:28:44.511Z,1.40
2023-04-05T21:31:11.455Z,1.30
2023-04-05T21:33:38.203Z,1.20
2023-04-05T21:36:05.145Z,1.20
2023-04-05T21:38:31.997Z,1.10
2023-04-05T21:40:58.760Z,1.10
2023-04-05T21:43:25.753Z,1.10
2023-04-05T21:45:52.945Z,1.10
2023-04-05T21:48:19.894Z,1.10
2023-04-05T21:50:46.756Z,1.00
2023-04-05T21:53:14.446Z,1.00
2023-04-05T21:55:41.239Z,1.00
2023-04-05T21:58:08.088Z,1.00
2023-04-05T22:00:34.933Z,0.90
2023-04-05T22:03:01.805Z,0.80
2023-04-05T22:05:37.279Z,0.80
2023-04-05T22:08:06.303Z,0.80
2023-04-05T22:10:34.408Z,0.70
2023-04-05T22:13:01.292Z,0.80
2023-04-05T22:15:28.096Z,0.70
2023-04-05T22:17:54.863Z,0.70
2023-04-05T22:20:21.717Z,0.70
2023-04-05T22:22:48.489Z,0.60
2023-04-05T22:25:15.460Z,0.60
2023-04-05T22:27:42.218Z,0.60
2023-04-05T22:30:09.816Z,0.60
2023-04-05T22:32:36.605Z,0.50
2023-04-05T22:35:04.411Z,0.50
2023-04-05T22:37:35.494Z,0.50
2023-04-05T22:40:05.094Z,0.50
2023-04-05T22:42:32.099Z,0.40
2023-04-05T22:44:59.104Z,0.40
2023-04-05T22:47:26.112Z,0.30
2023-04-05T22:49:53.198Z,0.30
2023-04-05T22:52:20.312Z,0.30
2023-04-05T22:54:47.137Z,0.30
2023-04-05T22:57:13.902Z,0.30
2023-04-05T22:59:40.789Z,0.30
2023-04-05T23:02:08.031Z,0.20
2023-04-05T23:04:34.845Z,0.20
2023-04-05T23:07:01.625Z,0.10
2023-04-05T23:09:28.435Z,0.10
2023-04-05T23:11:55.341Z,0.10
2023-04-05T23:14:22.157Z,0.10
2023-04-05T23:16:48.912Z,0.00
2023-04-05T23:19:16.533Z,0.00
2023-04-05T23:21:43.363Z,0.00
2023-04-05T23:24:10.791Z,0.00
2023-04-05T23:26:37.950Z,0.00
2023-04-05T23:29:04.686Z,-0.10
2023-04-05T23:31:31.684Z,0.00
2023-04-05T23:33:58.595Z,-0.10
2023-04-05T23:36:25.947Z,-0.10
2023-04-05T23:38:52.706Z,-0.10
2023-04-05T23:41:19.488Z,-0.10
2023-04-05T23:43:46.344Z,-0.10
2023-04-05T23:46:13.567Z,-0.20
2023-04-05T23:48:40.478Z,-0.20
2023-04-05T23:51:07.371Z,-0.20
2023-04-05T23:53:34.140Z,-0.20
2023-04-05T23:56:01.080Z,-0.20
2023-04-05T23:58:28.171Z,-0.30
